M I D A S
Marine Information and Data Acquisition System
Tripno 2166 of the Zeeleeuw from 2011-08-18 06:46:36 to 2011-08-18 17:00:00
Back to CruiseResearch ActivitiesStationsMapUnderway DataData graphs

EquipmentUnitsComment
TimeDGPSUTC
LatitudeDGPSDM.mWGS84
LongitudeDGPSDM.mWGS84
HeadingGyrodeg 
SOGDGPSknotsSpeed over ground
COGDGPSdegCourse over ground
DepthEcho soundermeters200 kHz
Missing or incorrect values are displayed as -999
Navigation data collected by the RV Zeeleeuw from 2011-08-18 06:30:54 to 2011-08-18 13:55:43
                                                                                    Next 1000 lines
Time Latitude Longitude Heading SOG COG Depth
2011-08-18 06:31:04 51°13.636 2°56.018 117.9 0.2 140 7.7
2011-08-18 06:31:09 51°13.636 2°56.019 117.4 0.2 138 7.6
2011-08-18 06:31:14 51°13.635 2°56.019 116.7 -999 229 7.5
2011-08-18 06:31:19 51°13.636 2°56.018 116 0.1 305 5.7
2011-08-18 06:31:23 51°13.635 2°56.018 115.2 0.1 238 7.6
2011-08-18 06:31:29 51°13.635 2°56.018 114.5 -999 235 7.6
2011-08-18 06:31:34 51°13.635 2°56.018 113.7 -999 210 7.6
2011-08-18 06:31:39 51°13.635 2°56.018 113.1 -999 199 7.5
2011-08-18 06:31:43 51°13.635 2°56.018 112.3 0.1 161 7.5
2011-08-18 06:31:49 51°13.635 2°56.018 111.8 0.1 160 7.5
2011-08-18 06:31:54 51°13.635 2°56.018 111 0.1 193 7.5
2011-08-18 06:31:59 51°13.635 2°56.018 110.2 0.1 192 5.7
2011-08-18 06:32:03 51°13.635 2°56.018 109.4 0.1 187 7.5
2011-08-18 06:32:09 51°13.635 2°56.018 108.7 0.1 191 7.5
2011-08-18 06:32:14 51°13.635 2°56.018 107.9 0.1 207 7.5
2011-08-18 06:32:19 51°13.634 2°56.018 106.9 0.1 218 7.6
2011-08-18 06:32:23 51°13.634 2°56.018 106.1 0.1 272 7.5
2011-08-18 06:32:29 51°13.634 2°56.017 105.5 0.3 283 7.5
2011-08-18 06:32:34 51°13.634 2°56.016 105 0.6 274 7.5
2011-08-18 06:32:39 51°13.635 2°56.014 104.6 0.8 285 7.4
2011-08-18 06:32:44 51°13.635 2°56.012 104.5 1.1 283 7.5
2011-08-18 06:32:48 51°13.635 2°56.009 104.8 1.5 285 7.8
2011-08-18 06:32:54 51°13.636 2°56.004 105.8 1.8 283 7.9
2011-08-18 06:32:59 51°13.637 2°56 106.6 2.2 287 5.5
2011-08-18 06:33:03 51°13.638 2°55.995 107.4 2.6 285 -999
2011-08-18 06:33:10 51°13.64 2°55.987 108.4 3 288 -999
2011-08-18 06:33:16 51°13.641 2°55.979 109.8 3.2 288 -999
2011-08-18 06:33:21 51°13.643 2°55.972 110.6 3.4 290 -999
2011-08-18 06:33:27 51°13.645 2°55.963 111.8 3.6 291 -999
2011-08-18 06:33:32 51°13.647 2°55.955 113.1 3.8 292 -999
2011-08-18 06:33:37 51°13.649 2°55.947 114.6 3.9 293 -999
2011-08-18 06:33:42 51°13.652 2°55.939 116 4.1 295 -999
2011-08-18 06:33:47 51°13.655 2°55.931 117.5 4.1 295 -999
2011-08-18 06:33:52 51°13.657 2°55.923 119.1 4.2 297 -999
2011-08-18 06:33:57 51°13.66 2°55.914 120.8 4.4 299 -999
2011-08-18 06:34:02 51°13.663 2°55.905 122.7 4.5 301 -999
2011-08-18 06:34:07 51°13.667 2°55.897 124.6 4.6 303 -999
2011-08-18 06:34:12 51°13.67 2°55.889 126.7 4.7 305 -999
2011-08-18 06:34:18 51°13.675 2°55.878 128.6 4.7 307 -999
2011-08-18 06:34:22 51°13.678 2°55.872 130.3 4.8 308 -999
2011-08-18 06:34:27 51°13.683 2°55.863 131.6 4.9 310 -999
2011-08-18 06:34:32 51°13.687 2°55.855 132.9 4.9 311 -999
2011-08-18 06:34:37 51°13.691 2°55.847 133.8 4.9 312 -999
2011-08-18 06:34:42 51°13.696 2°55.839 134.9 5 313 -999
2011-08-18 06:34:47 51°13.701 2°55.831 135.6 5 314 -999
2011-08-18 06:34:52 51°13.706 2°55.823 136.1 5.1 315 -999
2011-08-18 06:34:57 51°13.711 2°55.815 136.4 5.2 315 -999
2011-08-18 06:35:03 51°13.717 2°55.805 136.4 5.2 316 -999
2011-08-18 06:35:07 51°13.722 2°55.799 136 5.2 315 -999
2011-08-18 06:35:12 51°13.727 2°55.79 135.2 5.2 315 -999
2011-08-18 06:35:17 51°13.732 2°55.782 134.2 5.4 314 -999
2011-08-18 06:35:22 51°13.737 2°55.773 133.6 5.5 313 -999
2011-08-18 06:35:27 51°13.742 2°55.764 133.6 5.5 313 -999
2011-08-18 06:35:32 51°13.747 2°55.756 133.4 5.6 314 -999
2011-08-18 06:35:37 51°13.752 2°55.746 133.4 5.6 313 -999
2011-08-18 06:35:42 51°13.757 2°55.738 133.8 5.5 313 -999
2011-08-18 06:35:47 51°13.762 2°55.729 134.4 5.4 313 -999
2011-08-18 06:35:52 51°13.768 2°55.721 135.2 5.4 315 -999
2011-08-18 06:35:57 51°13.773 2°55.712 136.5 5.3 316 -999
2011-08-18 06:36:02 51°13.779 2°55.704 138.3 5.3 318 -999
2011-08-18 06:36:07 51°13.784 2°55.696 140.3 5.4 319 -999
2011-08-18 06:36:12 51°13.79 2°55.689 142.2 5.5 321 -999
2011-08-18 06:36:17 51°13.796 2°55.681 143.6 5.5 322 -999
2011-08-18 06:36:22 51°13.803 2°55.674 145 5.5 324 -999
2011-08-18 06:36:27 51°13.809 2°55.667 147.1 5.4 326 -999
2011-08-18 06:36:32 51°13.815 2°55.661 149.7 5.4 328 -999
2011-08-18 06:36:37 51°13.822 2°55.655 152.5 5.4 331 -999
2011-08-18 06:36:42 51°13.828 2°55.65 155.5 5.4 334 -999
2011-08-18 06:36:47 51°13.836 2°55.645 158.7 5.4 337 -999
2011-08-18 06:36:52 51°13.842 2°55.641 161.9 5.4 339 -999
2011-08-18 06:36:57 51°13.849 2°55.638 165.4 5.2 344 -999
2011-08-18 06:37:02 51°13.856 2°55.635 168.9 5.2 346 -999
2011-08-18 06:37:07 51°13.863 2°55.633 172.4 5.1 349 -999
2011-08-18 06:37:12 51°13.87 2°55.631 175.8 5 352 -999
2011-08-18 06:37:17 51°13.877 2°55.631 179.4 4.8 356 -999
2011-08-18 06:37:22 51°13.883 2°55.63 182.7 4.5 359 -999
2011-08-18 06:37:27 51°13.889 2°55.631 186 4.3 -999 -999
2011-08-18 06:37:32 51°13.894 2°55.631 188.7 4 3 -999
2011-08-18 06:37:37 51°13.899 2°55.632 191.1 3.8 5 -999
2011-08-18 06:37:42 51°13.904 2°55.633 193.3 3.6 7 -999
2011-08-18 06:37:47 51°13.909 2°55.634 195.4 3.4 8 -999
2011-08-18 06:37:52 51°13.913 2°55.635 197.4 3.2 11 -999
2011-08-18 06:37:57 51°13.918 2°55.637 198.6 3.1 12 11.6
2011-08-18 06:38:02 51°13.922 2°55.638 200 2.9 14 11.6
2011-08-18 06:38:07 51°13.925 2°55.64 201.8 2.8 16 11.4
2011-08-18 06:38:12 51°13.929 2°55.641 203.5 2.7 16 11.6
2011-08-18 06:38:17 51°13.932 2°55.643 204.8 2.6 18 11.7
2011-08-18 06:38:22 51°13.936 2°55.645 206.5 2.5 20 11.7
2011-08-18 06:38:27 51°13.938 2°55.647 208.3 2.4 22 -999
2011-08-18 06:38:32 51°13.941 2°55.649 209.8 2.3 22 11.5
2011-08-18 06:38:37 51°13.944 2°55.651 211.1 2.2 23 11.7
2011-08-18 06:38:42 51°13.947 2°55.653 212.6 2.2 24 11.6
2011-08-18 06:38:47 51°13.949 2°55.655 214.1 2.1 25 -999
2011-08-18 06:38:51 51°13.951 2°55.657 215.3 2.1 27 11.8
2011-08-18 06:38:57 51°13.954 2°55.659 217 2 28 12
2011-08-18 06:39:02 51°13.957 2°55.661 218.1 1.9 27 12.1
2011-08-18 06:39:07 51°13.958 2°55.663 219.1 1.5 28 12.1
2011-08-18 06:39:11 51°13.959 2°55.663 220.5 1.1 21 12.4
2011-08-18 06:39:16 51°13.96 2°55.663 222.4 0.5 350 12.3
2011-08-18 06:39:21 51°13.96 2°55.662 225.8 0.6 276 12.2
2011-08-18 06:39:26 51°13.96 2°55.659 231.2 1.2 259 12.2
2011-08-18 06:39:31 51°13.959 2°55.655 238.2 1.7 257 12.2
2011-08-18 06:39:35 51°13.959 2°55.651 246.2 2.1 262 12
2011-08-18 06:39:40 51°13.959 2°55.645 254.4 2.7 268 12
2011-08-18 06:39:45 51°13.959 2°55.639 262.5 3.1 276 11.8
2011-08-18 06:39:50 51°13.96 2°55.631 270.6 3.5 282 -999
2011-08-18 06:39:55 51°13.962 2°55.623 278.6 3.8 289 11.8
2011-08-18 06:39:59 51°13.964 2°55.617 286.8 4.2 296 12
2011-08-18 06:40:05 51°13.968 2°55.607 295.2 4.5 303 12
2011-08-18 06:40:10 51°13.972 2°55.599 303.7 4.9 311 11.7
2011-08-18 06:40:15 51°13.977 2°55.59 311.9 5.3 315 11.7
2011-08-18 06:40:19 51°13.982 2°55.583 316.4 5.7 315 11.7
2011-08-18 06:40:24 51°13.988 2°55.574 318.2 6.1 318 11.2
2011-08-18 06:40:29 51°13.995 2°55.565 319.4 6.4 318 11.6
2011-08-18 06:40:34 51°14.002 2°55.555 321.2 6.8 322 11.5
2011-08-18 06:40:39 51°14.01 2°55.546 323.7 7 323 11.6
2011-08-18 06:40:43 51°14.017 2°55.539 326.2 7.2 326 11.4
2011-08-18 06:40:49 51°14.027 2°55.528 328.1 7.4 326 -999
2011-08-18 06:40:54 51°14.036 2°55.519 328.9 7.6 327 11.2
2011-08-18 06:40:59 51°14.045 2°55.509 329.3 7.8 328 11.6
2011-08-18 06:41:04 51°14.055 2°55.5 329.6 8 328 11.4
2011-08-18 06:41:09 51°14.064 2°55.49 329.6 8.1 328 11.4
2011-08-18 06:41:14 51°14.074 2°55.481 330.3 8.2 329 11.4
2011-08-18 06:41:19 51°14.084 2°55.472 330.5 8.3 328 11.3
2011-08-18 06:41:24 51°14.094 2°55.462 330.3 8.4 328 11.4
2011-08-18 06:41:29 51°14.104 2°55.452 330.3 8.5 329 11.3
2011-08-18 06:41:34 51°14.114 2°55.442 330.1 8.6 328 11.3
2011-08-18 06:41:39 51°14.124 2°55.432 329.6 8.6 328 11.3
2011-08-18 06:41:43 51°14.132 2°55.424 330.1 8.6 329 11.3
2011-08-18 06:41:49 51°14.144 2°55.412 330.4 8.7 328 11.2
2011-08-18 06:41:54 51°14.155 2°55.402 331.1 8.7 330 11.2
2011-08-18 06:41:59 51°14.165 2°55.392 331.6 8.7 329 11.2
2011-08-18 06:42:04 51°14.175 2°55.382 330.6 8.7 328 11.2
2011-08-18 06:42:09 51°14.185 2°55.372 329.7 8.7 328 11.3
2011-08-18 06:42:14 51°14.196 2°55.361 329.4 8.8 327 11.3
2011-08-18 06:42:19 51°14.206 2°55.351 329.3 8.8 327 11.2
2011-08-18 06:42:24 51°14.216 2°55.34 329.4 8.8 327 -999
2011-08-18 06:42:29 51°14.226 2°55.329 329.4 8.8 327 11.2
2011-08-18 06:42:34 51°14.237 2°55.319 328.9 8.8 326 11.1
2011-08-18 06:42:39 51°14.247 2°55.308 328.6 8.9 327 -999
2011-08-18 06:42:44 51°14.257 2°55.297 328.4 8.9 326 11.1
2011-08-18 06:42:50 51°14.27 2°55.284 328.9 8.9 328 -999
2011-08-18 06:42:54 51°14.278 2°55.276 329.8 8.9 328 11.1
2011-08-18 06:42:59 51°14.289 2°55.265 330.3 8.9 327 10.5
2011-08-18 06:43:04 51°14.299 2°55.255 330 8.9 327 10.7
2011-08-18 06:43:09 51°14.309 2°55.244 329.4 9 327 11.1
2011-08-18 06:43:15 51°14.322 2°55.231 329 9 327 11.2
2011-08-18 06:43:19 51°14.33 2°55.222 329.4 9 328 11.1
2011-08-18 06:43:24 51°14.341 2°55.212 331 8.9 330 10.9
2011-08-18 06:43:29 51°14.352 2°55.202 331.9 8.9 329 11.1
2011-08-18 06:43:34 51°14.362 2°55.192 331.9 8.9 330 11.2
2011-08-18 06:43:39 51°14.373 2°55.182 332 8.9 329 11
2011-08-18 06:43:43 51°14.382 2°55.174 332 8.9 329 10.9
2011-08-18 06:43:49 51°14.394 2°55.162 331.8 8.9 328 10.8
2011-08-18 06:43:54 51°14.405 2°55.151 330.4 8.9 327 11.2
2011-08-18 06:43:59 51°14.415 2°55.14 329.5 9 327 11.2
2011-08-18 06:44:03 51°14.424 2°55.132 329.5 8.9 327 10.8
2011-08-18 06:44:09 51°14.436 2°55.118 328.7 8.9 325 10.7
2011-08-18 06:44:14 51°14.446 2°55.107 327.6 8.9 325 10.8
2011-08-18 06:44:19 51°14.456 2°55.096 327.4 8.9 325 11.5
2011-08-18 06:44:24 51°14.466 2°55.085 327.8 8.9 326 11.6
2011-08-18 06:44:29 51°14.476 2°55.073 328.2 8.9 325 11.5
2011-08-18 06:44:34 51°14.487 2°55.062 328.1 8.9 325 11.7
2011-08-18 06:44:39 51°14.497 2°55.05 328.1 9 325 11.6
2011-08-18 06:44:43 51°14.505 2°55.041 327.6 8.9 324 11.4
2011-08-18 06:44:49 51°14.516 2°55.027 327.1 8.9 323 11.7
2011-08-18 06:44:54 51°14.526 2°55.014 326.3 8.9 321 11.9
2011-08-18 06:44:59 51°14.535 2°55.001 325.4 9 318 12.2
2011-08-18 06:45:03 51°14.543 2°54.99 322.9 9 315 11.9
2011-08-18 06:45:09 51°14.553 2°54.972 320.2 9.2 312 12.2
2011-08-18 06:45:14 51°14.561 2°54.955 319.1 9.5 310 12
2011-08-18 06:45:19 51°14.57 2°54.938 318.7 9.9 309 11.7
2011-08-18 06:45:23 51°14.577 2°54.925 319.4 10.1 311 11.9
2011-08-18 06:45:29 51°14.589 2°54.905 321 10.4 313 12
2011-08-18 06:45:34 51°14.599 2°54.888 323.8 10.7 316 11.8
2011-08-18 06:45:39 51°14.611 2°54.871 325 11 316 11.8
2011-08-18 06:45:43 51°14.62 2°54.858 326 11.1 318 11.5
2011-08-18 06:45:49 51°14.634 2°54.838 326.5 11.3 318 11.4
2011-08-18 06:45:54 51°14.646 2°54.822 327 11.4 320 11.8
2011-08-18 06:45:59 51°14.658 2°54.806 328.6 11.5 321 11.5
2011-08-18 06:46:03 51°14.668 2°54.792 329 11.9 321 11.7
2011-08-18 06:46:09 51°14.684 2°54.772 328.5 12.1 320 11.3
2011-08-18 06:46:14 51°14.697 2°54.756 328.5 12.1 322 11.3
2011-08-18 06:46:19 51°14.71 2°54.739 329.2 12.2 322 11.6
2011-08-18 06:46:23 51°14.721 2°54.726 329.4 12.3 322 11.4
2011-08-18 06:46:29 51°14.737 2°54.706 329.5 12.4 324 11.3
2011-08-18 06:46:34 51°14.752 2°54.69 331.1 12.5 325 11.3
2011-08-18 06:46:39 51°14.766 2°54.674 331.2 12.6 323 11.8
2011-08-18 06:46:43 51°14.777 2°54.661 331.3 12.6 326 11.7
2011-08-18 06:46:49 51°14.794 2°54.642 331.7 12.7 324 11.9
2011-08-18 06:46:54 51°14.809 2°54.626 331.5 12.7 326 12.2
2011-08-18 06:46:59 51°14.823 2°54.61 332.1 12.7 325 12
2011-08-18 06:47:03 51°14.835 2°54.598 332.6 12.7 327 12.1
2011-08-18 06:47:09 51°14.853 2°54.579 332.7 12.7 326 11.9
2011-08-18 06:47:14 51°14.867 2°54.564 331.9 12.7 326 12.1
2011-08-18 06:47:19 51°14.882 2°54.548 331.8 12.7 326 12.1
2011-08-18 06:47:23 51°14.893 2°54.534 330.9 12.7 323 11.9
2011-08-18 06:47:28 51°14.907 2°54.518 330.4 12.7 324 12.2
2011-08-18 06:47:34 51°14.924 2°54.498 330.3 12.7 324 12
2011-08-18 06:47:39 51°14.938 2°54.48 329.5 12.8 322 12.2
2011-08-18 06:47:44 51°14.952 2°54.462 326.8 12.8 320 12
2011-08-18 06:47:49 51°14.965 2°54.445 326 12.7 321 11.9
2011-08-18 06:47:54 51°14.979 2°54.427 326.4 12.8 321 11.8
2011-08-18 06:47:59 51°14.993 2°54.41 326.1 12.7 321 11.6
2011-08-18 06:48:03 51°15.004 2°54.396 327.2 12.7 322 11.6
2011-08-18 06:48:09 51°15.02 2°54.375 326.9 12.7 320 11.7
2011-08-18 06:48:14 51°15.033 2°54.355 324.7 12.8 317 11.5
2011-08-18 06:48:19 51°15.047 2°54.337 323.1 12.8 319 11.6
2011-08-18 06:48:24 51°15.06 2°54.318 323.6 12.8 319 11.5
2011-08-18 06:48:29 51°15.073 2°54.301 324.9 12.7 321 11.2
2011-08-18 06:48:34 51°15.087 2°54.283 325.9 12.7 320 11.1
2011-08-18 06:48:39 51°15.1 2°54.264 325.2 12.7 320 11.2
2011-08-18 06:48:44 51°15.113 2°54.246 325.1 12.7 320 11.1
2011-08-18 06:48:49 51°15.127 2°54.227 324.7 12.8 319 11.6
2011-08-18 06:48:54 51°15.141 2°54.209 324.8 12.8 320 11.2
2011-08-18 06:48:59 51°15.154 2°54.191 325 12.9 320 11.3
2011-08-18 06:49:03 51°15.165 2°54.177 325.3 12.9 320 11.4
2011-08-18 06:49:09 51°15.182 2°54.156 325.7 12.8 321 11.4
2011-08-18 06:49:14 51°15.196 2°54.138 326.5 12.8 321 11.3
2011-08-18 06:49:19 51°15.21 2°54.121 327.3 12.8 322 11.4
2011-08-18 06:49:23 51°15.221 2°54.107 327.6 12.9 322 11.2
2011-08-18 06:49:29 51°15.238 2°54.086 327.7 12.9 321 11.4
2011-08-18 06:49:34 51°15.252 2°54.068 326.8 12.9 321 11.5
2011-08-18 06:49:39 51°15.266 2°54.051 326.7 12.9 321 11.3
2011-08-18 06:49:43 51°15.277 2°54.037 326.5 12.9 322 11.6
2011-08-18 06:49:49 51°15.294 2°54.016 326.9 12.8 322 11.5
2011-08-18 06:49:54 51°15.308 2°53.998 327.2 12.9 322 11.5
2011-08-18 06:49:59 51°15.322 2°53.981 327.3 12.9 322 11.2
2011-08-18 06:50:03 51°15.333 2°53.967 327.6 12.8 322 11.4
2011-08-18 06:50:09 51°15.35 2°53.945 327.3 12.9 320 11.3
2011-08-18 06:50:14 51°15.363 2°53.927 326.2 12.8 320 11.3
2011-08-18 06:50:19 51°15.377 2°53.907 325.1 12.8 318 11.2
2011-08-18 06:50:24 51°15.39 2°53.889 323.8 12.8 318 10.7
2011-08-18 06:50:29 51°15.403 2°53.87 324.1 12.8 318 10.8
2011-08-18 06:50:34 51°15.416 2°53.851 323.8 12.7 318 10.4
2011-08-18 06:50:39 51°15.429 2°53.832 324.1 12.8 318 10.5
2011-08-18 06:50:43 51°15.44 2°53.817 323.8 12.8 318 10.5
2011-08-18 06:50:49 51°15.456 2°53.794 324.1 12.8 318 10.4
2011-08-18 06:50:54 51°15.469 2°53.776 324.6 12.8 319 10.5
2011-08-18 06:50:59 51°15.483 2°53.757 324.7 12.8 319 10.6
2011-08-18 06:51:03 51°15.494 2°53.743 325.3 12.8 320 10.4
2011-08-18 06:51:09 51°15.51 2°53.721 325.9 12.8 319 10.6
2011-08-18 06:51:14 51°15.523 2°53.702 325.9 12.7 319 10.8
2011-08-18 06:51:19 51°15.537 2°53.684 325.8 12.8 319 10.7
2011-08-18 06:51:23 51°15.547 2°53.669 325.4 12.8 321 11.1
2011-08-18 06:51:29 51°15.564 2°53.648 326.6 12.8 321 10.8
2011-08-18 06:51:34 51°15.578 2°53.631 327.1 12.8 322 11.1
2011-08-18 06:51:39 51°15.592 2°53.613 327.7 12.7 322 10.9
2011-08-18 06:51:43 51°15.603 2°53.6 328.3 12.8 323 11
2011-08-18 06:51:49 51°15.621 2°53.58 329 12.8 324 11
2011-08-18 06:51:54 51°15.635 2°53.563 330.5 12.7 324 10.4
2011-08-18 06:51:59 51°15.65 2°53.547 330.8 12.7 325 11.2
2011-08-18 06:52:03 51°15.661 2°53.535 331.4 12.7 325 11.3
2011-08-18 06:52:09 51°15.679 2°53.516 331.9 12.8 327 11.3
2011-08-18 06:52:14 51°15.694 2°53.501 332.9 12.8 327 11.3
2011-08-18 06:52:19 51°15.709 2°53.486 333.4 12.8 327 11.4
2011-08-18 06:52:23 51°15.721 2°53.474 334 12.6 328 11.2
2011-08-18 06:52:29 51°15.739 2°53.456 334.7 12.8 328 11.4
2011-08-18 06:52:34 51°15.754 2°53.442 334.7 12.7 329 11.4
2011-08-18 06:52:39 51°15.769 2°53.427 335.3 12.7 328 11.9
2011-08-18 06:52:43 51°15.781 2°53.415 334.7 12.7 327 11.8
2011-08-18 06:52:49 51°15.798 2°53.397 334.1 12.7 328 11.1
2011-08-18 06:52:54 51°15.813 2°53.381 333.7 12.8 327 11.9
2011-08-18 06:52:59 51°15.828 2°53.366 333.7 12.7 328 11.7
2011-08-18 06:53:04 51°15.843 2°53.351 334 12.7 328 12.3
2011-08-18 06:53:09 51°15.858 2°53.337 334.4 12.8 329 11.7
2011-08-18 06:53:14 51°15.873 2°53.322 335 12.7 329 11.7
2011-08-18 06:53:19 51°15.888 2°53.308 336 12.7 330 11.8
2011-08-18 06:53:24 51°15.904 2°53.294 336.6 12.7 331 12.5
2011-08-18 06:53:29 51°15.919 2°53.28 337 12.7 330 11.8
2011-08-18 06:53:34 51°15.935 2°53.267 337.2 12.7 331 12.5
2011-08-18 06:53:39 51°15.95 2°53.253 337.6 12.7 331 12.2
2011-08-18 06:53:44 51°15.966 2°53.241 338.4 12.7 332 12.2
2011-08-18 06:53:49 51°15.981 2°53.228 338.9 12.7 333 12.8
2011-08-18 06:53:54 51°15.997 2°53.215 339.3 12.7 333 12.6
2011-08-18 06:53:59 51°16.013 2°53.203 339.9 12.7 334 12.6
2011-08-18 06:54:03 51°16.026 2°53.193 340.6 12.6 334 12.3
2011-08-18 06:54:09 51°16.044 2°53.178 341.2 12.6 335 12.6
2011-08-18 06:54:14 51°16.06 2°53.166 341.6 12.5 334 12.5
2011-08-18 06:54:19 51°16.076 2°53.155 341.7 12.6 335 12.8
2011-08-18 06:54:24 51°16.092 2°53.142 341.2 12.6 333 12.8
2011-08-18 06:54:29 51°16.107 2°53.13 340.6 12.6 334 12.4
2011-08-18 06:54:34 51°16.123 2°53.117 340.4 12.7 332 12.8
2011-08-18 06:54:39 51°16.138 2°53.105 339.8 12.6 333 12.3
2011-08-18 06:54:43 51°16.151 2°53.094 338.8 12.6 332 12.5
2011-08-18 06:54:49 51°16.169 2°53.078 338.8 12.5 331 12.2
2011-08-18 06:54:54 51°16.184 2°53.065 338.4 12.5 331 12.3
2011-08-18 06:54:59 51°16.2 2°53.051 337.4 12.6 330 12.8
2011-08-18 06:55:04 51°16.215 2°53.037 336.9 12.6 331 12.4
2011-08-18 06:55:09 51°16.23 2°53.023 336.9 12.6 330 12.2
2011-08-18 06:55:14 51°16.245 2°53.009 336.5 12.7 329 12.2
2011-08-18 06:55:19 51°16.26 2°52.995 335.9 12.7 330 12.3
2011-08-18 06:55:24 51°16.275 2°52.981 336 12.6 329 11.9
2011-08-18 06:55:29 51°16.29 2°52.966 335.8 12.7 328 12.5
2011-08-18 06:55:34 51°16.305 2°52.951 335.4 12.5 329 12
2011-08-18 06:55:39 51°16.32 2°52.937 335.6 12.6 329 12.4
2011-08-18 06:55:44 51°16.335 2°52.923 336.4 12.5 330 12.1
2011-08-18 06:55:49 51°16.35 2°52.909 336.1 12.6 329 12
2011-08-18 06:55:54 51°16.365 2°52.896 336.5 12.6 332 12.5
2011-08-18 06:55:59 51°16.381 2°52.882 336.9 12.6 331 12
2011-08-18 06:56:04 51°16.396 2°52.869 337.3 12.6 332 12.1
2011-08-18 06:56:09 51°16.412 2°52.857 338.5 12.6 333 12.1
2011-08-18 06:56:14 51°16.427 2°52.844 338.9 12.6 333 12.2
2011-08-18 06:56:19 51°16.443 2°52.832 339.1 12.6 334 11.9
2011-08-18 06:56:23 51°16.456 2°52.822 339.7 12.6 334 12
2011-08-18 06:56:29 51°16.474 2°52.808 340.6 12.6 335 11.9
2011-08-18 06:56:34 51°16.49 2°52.796 341.2 12.6 335 12
2011-08-18 06:56:39 51°16.506 2°52.785 341.4 12.6 336 11.8
2011-08-18 06:56:43 51°16.519 2°52.775 341.9 12.6 335 11.9
2011-08-18 06:56:48 51°16.535 2°52.763 341.9 12.5 335 11.5
2011-08-18 06:56:54 51°16.554 2°52.749 341.4 12.6 335 11.7
2011-08-18 06:56:59 51°16.569 2°52.738 341.7 12.6 335 11.7
2011-08-18 06:57:04 51°16.585 2°52.727 342 12.5 337 11.4
2011-08-18 06:57:09 51°16.601 2°52.716 342.6 12.5 336 11.2
2011-08-18 06:57:14 51°16.617 2°52.705 343 12.6 337 11.3
2011-08-18 06:57:19 51°16.633 2°52.694 343.3 12.5 337 11.4
2011-08-18 06:57:23 51°16.646 2°52.686 343.3 12.5 338 11.1
2011-08-18 06:57:29 51°16.665 2°52.673 343.2 12.5 338 11
2011-08-18 06:57:34 51°16.682 2°52.663 343.2 12.6 338 10.9
2011-08-18 06:57:39 51°16.698 2°52.653 343.9 12.5 338 10.4
2011-08-18 06:57:43 51°16.71 2°52.644 344.5 12.5 338 10.4
2011-08-18 06:57:49 51°16.73 2°52.632 344.5 12.4 338 10.1
2011-08-18 06:57:54 51°16.746 2°52.621 344.3 12.5 337 10.1
2011-08-18 06:57:59 51°16.762 2°52.611 343.7 12.5 338 9.8
2011-08-18 06:58:04 51°16.778 2°52.601 343.8 12.4 338 10
2011-08-18 06:58:09 51°16.794 2°52.59 343.5 12.5 337 10.1
2011-08-18 06:58:14 51°16.81 2°52.579 343.1 12.5 337 9.8
2011-08-18 06:58:19 51°16.826 2°52.569 343.8 12.5 339 9.9
2011-08-18 06:58:23 51°16.839 2°52.561 343.6 12.5 338 9.8
2011-08-18 06:58:29 51°16.858 2°52.549 343.7 12.4 339 10
2011-08-18 06:58:34 51°16.874 2°52.538 343.6 12.5 337 10
2011-08-18 06:58:39 51°16.89 2°52.527 342.7 12.5 337 9.8
2011-08-18 06:58:43 51°16.903 2°52.518 342.8 12.5 336 9.8
2011-08-18 06:58:49 51°16.922 2°52.505 342 12.5 337 9.7
2011-08-18 06:58:54 51°16.937 2°52.493 342.1 12.5 335 9.9
2011-08-18 06:58:59 51°16.953 2°52.481 341.4 12.5 334 10
2011-08-18 06:59:03 51°16.965 2°52.471 339.8 12.5 332 9.5
2011-08-18 06:59:08 51°16.981 2°52.458 338.3 12.5 332 9.6
2011-08-18 06:59:14 51°16.999 2°52.443 337.9 12.5 333 9.6
2011-08-18 06:59:19 51°17.014 2°52.429 337.9 12.5 332 9.9
2011-08-18 06:59:24 51°17.03 2°52.416 337.6 12.6 333 9.8
2011-08-18 06:59:29 51°17.045 2°52.404 337.8 12.6 333 9.7
2011-08-18 06:59:34 51°17.061 2°52.391 338.8 12.6 333 10.1
2011-08-18 06:59:39 51°17.076 2°52.379 339.1 12.6 334 9.8
2011-08-18 06:59:44 51°17.092 2°52.366 338.7 12.6 333 10
2011-08-18 06:59:49 51°17.108 2°52.354 338.8 12.6 334 10
2011-08-18 06:59:54 51°17.124 2°52.342 339.4 12.6 334 9.9
2011-08-18 06:59:59 51°17.139 2°52.33 340 12.6 336 10.1
2011-08-18 07:00:04 51°17.155 2°52.319 340.8 12.6 336 10.1
2011-08-18 07:00:09 51°17.172 2°52.308 342.2 12.5 338 10.5
2011-08-18 07:00:14 51°17.187 2°52.297 342.9 12.6 336 10.5
2011-08-18 07:00:19 51°17.204 2°52.286 342.4 12.7 337 10.6
2011-08-18 07:00:24 51°17.219 2°52.275 342.7 12.5 337 10.4
2011-08-18 07:00:29 51°17.235 2°52.264 342.8 12.6 337 10.5
2011-08-18 07:00:34 51°17.252 2°52.253 342.6 12.6 337 10.8
2011-08-18 07:00:39 51°17.268 2°52.242 342.7 12.6 336 11.1
2011-08-18 07:00:43 51°17.28 2°52.233 342.1 12.6 336 11.1
2011-08-18 07:00:49 51°17.3 2°52.219 342.2 12.6 336 11.1
2011-08-18 07:00:54 51°17.316 2°52.208 342.3 12.5 337 11
2011-08-18 07:00:59 51°17.332 2°52.197 342.1 12.6 335 11.4
2011-08-18 07:01:03 51°17.344 2°52.188 341.8 12.6 336 11.3
2011-08-18 07:01:09 51°17.364 2°52.174 341.9 12.6 336 11.3
2011-08-18 07:01:14 51°17.38 2°52.163 341.9 12.6 336 11.3
2011-08-18 07:01:19 51°17.395 2°52.151 341.7 12.5 336 11
2011-08-18 07:01:24 51°17.411 2°52.139 341.4 12.6 336 10.9
2011-08-18 07:01:28 51°17.424 2°52.13 341.2 12.6 335 11.3
2011-08-18 07:01:34 51°17.443 2°52.115 340.8 12.6 335 11.4
2011-08-18 07:01:39 51°17.459 2°52.103 340.5 12.6 334 11.2
2011-08-18 07:01:43 51°17.471 2°52.093 339.9 12.6 335 11.5
2011-08-18 07:01:49 51°17.49 2°52.078 340.3 12.6 335 11
2011-08-18 07:01:54 51°17.506 2°52.066 340.3 12.6 334 10.9
2011-08-18 07:01:59 51°17.521 2°52.053 339.6 12.6 333 11.1
2011-08-18 07:02:04 51°17.537 2°52.04 339.2 12.6 333 11.2
2011-08-18 07:02:09 51°17.552 2°52.027 338.5 12.6 333 11.2
2011-08-18 07:02:14 51°17.568 2°52.015 338.6 12.6 332 10.8
2011-08-18 07:02:19 51°17.583 2°52.002 338.6 12.7 333 10.8
2011-08-18 07:02:24 51°17.599 2°51.989 338.7 12.6 333 10.3
2011-08-18 07:02:29 51°17.614 2°51.977 339 12.6 333 10.5
2011-08-18 07:02:34 51°17.63 2°51.963 338.9 12.6 333 10.4
2011-08-18 07:02:39 51°17.646 2°51.951 339.2 12.6 334 10.3
2011-08-18 07:02:43 51°17.658 2°51.942 339.6 12.6 334 10.3
2011-08-18 07:02:49 51°17.677 2°51.927 340.6 12.6 335 10.3
2011-08-18 07:02:54 51°17.693 2°51.916 340.6 12.6 335 10.1
2011-08-18 07:02:59 51°17.709 2°51.904 340.9 12.6 334 10.1
2011-08-18 07:03:03 51°17.721 2°51.894 341 12.5 334 10.2
2011-08-18 07:03:09 51°17.74 2°51.88 340.4 12.6 334 10.3
2011-08-18 07:03:14 51°17.756 2°51.868 340.1 12.5 334 10.2
2011-08-18 07:03:19 51°17.771 2°51.855 339.7 12.6 334 10.2
2011-08-18 07:03:24 51°17.787 2°51.845 340.6 12.5 336 10.1
2011-08-18 07:03:28 51°17.8 2°51.836 341.8 12.6 336 10.2
2011-08-18 07:03:34 51°17.819 2°51.822 342.3 12.5 337 9.9
2011-08-18 07:03:39 51°17.835 2°51.811 342.9 12.6 337 10.1
2011-08-18 07:03:43 51°17.848 2°51.803 343.5 12.5 338 10.1
2011-08-18 07:03:49 51°17.868 2°51.79 343.8 12.6 337 10.1
2011-08-18 07:03:54 51°17.884 2°51.779 343.3 12.6 337 10.1
2011-08-18 07:03:59 51°17.9 2°51.768 343 12.6 337 10.4
2011-08-18 07:04:04 51°17.916 2°51.756 342.7 12.6 335 10.3
2011-08-18 07:04:09 51°17.932 2°51.745 342 12.7 335 10.6
2011-08-18 07:04:14 51°17.947 2°51.733 341.4 12.6 334 10.1
2011-08-18 07:04:19 51°17.963 2°51.72 340.2 12.6 334 10.4
2011-08-18 07:04:23 51°17.976 2°51.711 340.5 12.6 334 10.4
2011-08-18 07:04:29 51°17.994 2°51.695 340.2 12.7 333 10.6
2011-08-18 07:04:34 51°18.01 2°51.683 339.3 12.7 333 10.6
2011-08-18 07:04:39 51°18.026 2°51.67 339.2 12.7 332 10.7
2011-08-18 07:04:43 51°18.038 2°51.659 338.3 12.7 333 10.7
2011-08-18 07:04:49 51°18.057 2°51.645 339.4 12.7 334 10.8
2011-08-18 07:04:54 51°18.073 2°51.633 340.6 12.7 335 10.8
2011-08-18 07:04:59 51°18.089 2°51.621 341.2 12.6 335 10.8
2011-08-18 07:05:03 51°18.102 2°51.612 341.6 12.7 336 11.1
2011-08-18 07:05:09 51°18.121 2°51.598 342.3 12.6 336 11.1
2011-08-18 07:05:14 51°18.137 2°51.587 343.1 12.7 337 11.2
2011-08-18 07:05:19 51°18.154 2°51.578 343.2 12.6 339 11.2
2011-08-18 07:05:23 51°18.167 2°51.57 345.2 12.6 339 11.3
2011-08-18 07:05:29 51°18.186 2°51.557 345.3 12.6 339 11.4
2011-08-18 07:05:34 51°18.203 2°51.547 345.4 12.6 339 11.7
2011-08-18 07:05:39 51°18.219 2°51.537 346 12.7 339 11.5
2011-08-18 07:05:43 51°18.232 2°51.53 346.3 12.6 340 11.5
2011-08-18 07:05:49 51°18.252 2°51.517 345.6 12.6 337 12.1
2011-08-18 07:05:54 51°18.268 2°51.506 344.5 12.7 338 11.9
2011-08-18 07:05:59 51°18.284 2°51.495 343.6 12.7 336 12.1
2011-08-18 07:06:03 51°18.297 2°51.485 342.3 12.8 335 11.9
2011-08-18 07:06:09 51°18.316 2°51.471 341.5 12.8 336 12.1
2011-08-18 07:06:14 51°18.332 2°51.459 341 12.7 335 12.1
2011-08-18 07:06:19 51°18.348 2°51.447 341.1 12.7 335 12.2
2011-08-18 07:06:23 51°18.361 2°51.438 341.2 12.7 335 12.4
2011-08-18 07:06:29 51°18.38 2°51.424 341.6 12.7 336 12.6
2011-08-18 07:06:34 51°18.396 2°51.412 342.7 12.7 335 12.6
2011-08-18 07:06:39 51°18.412 2°51.401 342.2 12.7 336 12.6
2011-08-18 07:06:44 51°18.428 2°51.389 341.8 12.8 335 13
2011-08-18 07:06:49 51°18.444 2°51.377 341.5 12.7 335 13.1
2011-08-18 07:06:54 51°18.46 2°51.364 340.5 12.7 333 13.1
2011-08-18 07:06:59 51°18.475 2°51.351 339.8 12.8 333 13.2
2011-08-18 07:07:04 51°18.491 2°51.339 339.4 12.7 333 13.2
2011-08-18 07:07:09 51°18.507 2°51.326 339.5 12.7 333 13.3
2011-08-18 07:07:14 51°18.522 2°51.313 339.5 12.8 333 13.6
2011-08-18 07:07:19 51°18.538 2°51.3 339.2 12.8 333 13.6
2011-08-18 07:07:23 51°18.551 2°51.29 340 12.8 335 13.6
2011-08-18 07:07:29 51°18.57 2°51.276 340.9 12.8 335 13.6
2011-08-18 07:07:34 51°18.586 2°51.263 341 12.8 334 13.6
2011-08-18 07:07:39 51°18.602 2°51.251 341.2 12.7 336 13.9
2011-08-18 07:07:43 51°18.615 2°51.242 341.8 12.7 336 13.7
2011-08-18 07:07:49 51°18.634 2°51.228 341.6 12.8 334 14
2011-08-18 07:07:54 51°18.65 2°51.215 340.5 12.7 334 13.9
2011-08-18 07:07:59 51°18.666 2°51.202 339.9 12.8 332 14.1
2011-08-18 07:08:03 51°18.678 2°51.191 338.8 12.8 332 14.1
2011-08-18 07:08:09 51°18.697 2°51.175 338.3 12.9 332 14.1
2011-08-18 07:08:14 51°18.713 2°51.162 337.8 12.8 332 13.9
2011-08-18 07:08:19 51°18.728 2°51.148 337.8 12.9 331 14.2
2011-08-18 07:08:24 51°18.744 2°51.135 338 12.8 332 14
2011-08-18 07:08:29 51°18.76 2°51.121 338.4 12.8 332 14.5
2011-08-18 07:08:34 51°18.775 2°51.108 339 12.8 332 14
2011-08-18 07:08:39 51°18.791 2°51.095 339.1 12.7 334 14.4
2011-08-18 07:08:43 51°18.804 2°51.085 339.8 12.7 333 14.4
2011-08-18 07:08:49 51°18.822 2°51.07 339.8 12.7 333 14.5
2011-08-18 07:08:54 51°18.838 2°51.057 339.8 12.8 333 14.6
2011-08-18 07:08:59 51°18.854 2°51.044 339.6 12.8 333 14.7
2011-08-18 07:09:03 51°18.867 2°51.034 339.8 12.8 334 14.7
2011-08-18 07:09:09 51°18.886 2°51.019 340 12.8 334 14.7
2011-08-18 07:09:14 51°18.902 2°51.008 340.7 12.7 335 14.6
2011-08-18 07:09:19 51°18.918 2°50.995 341.4 12.7 334 14.8
2011-08-18 07:09:24 51°18.934 2°50.983 340.9 12.7 334 14.5
2011-08-18 07:09:29 51°18.949 2°50.971 340.3 12.8 334 14.7
2011-08-18 07:09:34 51°18.965 2°50.959 340.4 12.8 334 14.6
2011-08-18 07:09:39 51°18.981 2°50.946 340.9 12.7 335 14.5
2011-08-18 07:09:43 51°18.994 2°50.937 341.2 12.8 335 14.7
2011-08-18 07:09:49 51°19.013 2°50.922 341.1 12.8 334 14.7
2011-08-18 07:09:54 51°19.029 2°50.91 341.3 12.7 335 14.8
2011-08-18 07:09:59 51°19.045 2°50.898 341.5 12.7 336 14.7
2011-08-18 07:10:03 51°19.058 2°50.889 342.4 12.7 336 14.6
2011-08-18 07:10:09 51°19.077 2°50.875 342.6 12.7 335 14.4
2011-08-18 07:10:14 51°19.093 2°50.863 342.5 12.7 335 14.8
2011-08-18 07:10:19 51°19.109 2°50.851 341.8 12.7 334 14.4
2011-08-18 07:10:23 51°19.122 2°50.841 340.9 12.7 334 14.6
2011-08-18 07:10:29 51°19.141 2°50.826 340.8 12.6 333 14.6
2011-08-18 07:10:34 51°19.156 2°50.814 340.4 12.8 333 14.9
2011-08-18 07:10:39 51°19.172 2°50.801 340.1 12.6 333 14.1
2011-08-18 07:10:44 51°19.188 2°50.788 339.2 12.7 332 14.1
2011-08-18 07:10:49 51°19.204 2°50.775 339 12.8 333 14.3
2011-08-18 07:10:54 51°19.219 2°50.762 339 12.8 333 14.2
2011-08-18 07:10:59 51°19.235 2°50.749 339.9 12.8 332 14.2
2011-08-18 07:11:04 51°19.251 2°50.736 339.6 12.8 332 13.9
2011-08-18 07:11:09 51°19.266 2°50.724 339.7 12.7 334 14.1
2011-08-18 07:11:14 51°19.283 2°50.711 339.9 12.8 333 14.1
2011-08-18 07:11:19 51°19.298 2°50.698 340 12.8 334 13.7
2011-08-18 07:11:24 51°19.314 2°50.686 340.1 12.8 334 13.4
2011-08-18 07:11:29 51°19.33 2°50.673 340.3 12.8 334 13.3
2011-08-18 07:11:34 51°19.346 2°50.66 340.1 12.8 333 13.1
2011-08-18 07:11:39 51°19.362 2°50.647 339.6 12.8 332 12.7
2011-08-18 07:11:44 51°19.377 2°50.634 339 12.9 332 12.7
2011-08-18 07:11:49 51°19.393 2°50.621 338.8 12.8 333 12.6
2011-08-18 07:11:54 51°19.409 2°50.608 339.3 12.8 333 12.4
2011-08-18 07:11:59 51°19.425 2°50.595 339.5 12.8 333 12.4
2011-08-18 07:12:03 51°19.437 2°50.584 339.8 12.9 333 12.2
2011-08-18 07:12:09 51°19.457 2°50.57 339.4 12.8 334 12.4
2011-08-18 07:12:14 51°19.473 2°50.556 340.3 12.9 333 12.3
2011-08-18 07:12:19 51°19.488 2°50.544 340.9 12.8 335 11.8
2011-08-18 07:12:23 51°19.501 2°50.534 341 12.9 334 12.2
2011-08-18 07:12:29 51°19.521 2°50.52 341.3 12.9 336 11.7
2011-08-18 07:12:34 51°19.537 2°50.508 342 12.8 335 11.1
2011-08-18 07:12:39 51°19.553 2°50.495 342.3 12.9 334 11.5
2011-08-18 07:12:43 51°19.566 2°50.486 341.5 12.8 334 11.6
2011-08-18 07:12:48 51°19.582 2°50.473 341.3 12.9 333 11.4
2011-08-18 07:12:54 51°19.601 2°50.457 340.6 12.9 333 11.7
2011-08-18 07:12:59 51°19.617 2°50.444 339.9 13 332 11.9
2011-08-18 07:13:03 51°19.629 2°50.433 339.2 13 332 12.3
2011-08-18 07:13:09 51°19.648 2°50.417 338.7 12.9 332 12.1
2011-08-18 07:13:14 51°19.664 2°50.403 338.4 13 331 12.5
2011-08-18 07:13:19 51°19.68 2°50.389 338.4 12.9 332 12.6
2011-08-18 07:13:23 51°19.693 2°50.378 339.2 13 332 12.8
2011-08-18 07:13:29 51°19.712 2°50.363 339.6 12.9 334 12.7
2011-08-18 07:13:34 51°19.728 2°50.35 340.3 12.9 334 13
2011-08-18 07:13:39 51°19.744 2°50.338 340.9 12.9 334 13.5
2011-08-18 07:13:43 51°19.757 2°50.328 341.2 12.9 334 13.2
2011-08-18 07:13:49 51°19.776 2°50.313 341 12.8 335 13.4
2011-08-18 07:13:54 51°19.792 2°50.301 341.9 12.9 335 13.7
2011-08-18 07:13:59 51°19.808 2°50.289 342.4 12.8 335 13.8
2011-08-18 07:14:04 51°19.824 2°50.277 342.1 12.8 334 13.8
2011-08-18 07:14:08 51°19.837 2°50.267 341.8 12.8 335 13.2
2011-08-18 07:14:14 51°19.856 2°50.252 341.4 12.9 334 13.3
2011-08-18 07:14:19 51°19.872 2°50.239 341.2 12.9 334 13.4
2011-08-18 07:14:23 51°19.885 2°50.229 340.7 12.9 332 13.6
2011-08-18 07:14:29 51°19.904 2°50.213 340.2 12.9 333 13.7
2011-08-18 07:14:34 51°19.92 2°50.2 339.6 12.9 332 13.9
2011-08-18 07:14:39 51°19.935 2°50.186 339.3 12.9 332 13.9
2011-08-18 07:14:43 51°19.948 2°50.175 338.4 12.9 330 14.3
2011-08-18 07:14:48 51°19.963 2°50.161 338.4 12.8 332 14.6
2011-08-18 07:14:54 51°19.982 2°50.145 338.7 12.9 331 15
2011-08-18 07:14:59 51°19.998 2°50.131 338.4 12.9 332 15.1
2011-08-18 07:15:03 51°20.01 2°50.12 338.5 12.9 332 15.3
2011-08-18 07:15:08 51°20.026 2°50.106 338.6 12.9 331 15.4
2011-08-18 07:15:14 51°20.045 2°50.091 338.6 12.9 332 15.5
2011-08-18 07:15:19 51°20.061 2°50.077 338.8 12.9 332 15.8
2011-08-18 07:15:23 51°20.074 2°50.066 338.7 12.8 332 16.1
2011-08-18 07:15:29 51°20.092 2°50.051 339.7 12.8 333 16.4
2011-08-18 07:15:34 51°20.108 2°50.038 339.9 12.8 334 16.6
2011-08-18 07:15:39 51°20.124 2°50.026 340.8 12.7 334 16.6
2011-08-18 07:15:43 51°20.137 2°50.016 341.4 12.7 334 17
2011-08-18 07:15:49 51°20.156 2°50.001 342 12.6 334 17.2
2011-08-18 07:15:54 51°20.172 2°49.99 342.7 12.6 335 17.4
2011-08-18 07:15:59 51°20.187 2°49.978 342.7 12.6 335 17.8
2011-08-18 07:16:04 51°20.203 2°49.967 343.3 12.6 337 17.7
2011-08-18 07:16:09 51°20.219 2°49.956 343.5 12.6 336 18.1
2011-08-18 07:16:14 51°20.235 2°49.944 344.1 12.5 336 18.2
2011-08-18 07:16:19 51°20.251 2°49.933 344 12.6 336 18.5
2011-08-18 07:16:24 51°20.267 2°49.922 344.1 12.5 336 18.7
2011-08-18 07:16:28 51°20.279 2°49.913 343.7 12.5 336 18.9
2011-08-18 07:16:34 51°20.298 2°49.899 343.8 12.5 336 19.1
2011-08-18 07:16:39 51°20.314 2°49.888 344 12.6 337 19.4
2011-08-18 07:16:43 51°20.327 2°49.88 344.5 12.5 337 19.5
2011-08-18 07:16:48 51°20.343 2°49.869 344.9 12.5 337 20
2011-08-18 07:16:54 51°20.362 2°49.856 344.8 12.5 337 20.1
2011-08-18 07:16:59 51°20.378 2°49.845 344.8 12.6 337 20.3
2011-08-18 07:17:03 51°20.391 2°49.836 344.7 12.5 336 20.3
2011-08-18 07:17:09 51°20.41 2°49.822 344.2 12.5 337 20.7
2011-08-18 07:17:14 51°20.426 2°49.811 344 12.6 336 20.9
2011-08-18 07:17:19 51°20.442 2°49.798 343 12.6 333 20.9
2011-08-18 07:17:23 51°20.454 2°49.788 341.9 12.8 333 21.7
2011-08-18 07:17:29 51°20.473 2°49.772 340.7 12.8 332 21.7
2011-08-18 07:17:34 51°20.489 2°49.76 339.8 12.7 333 21.5
2011-08-18 07:17:39 51°20.504 2°49.746 340.2 12.7 332 21.4
2011-08-18 07:17:44 51°20.52 2°49.733 339.3 12.8 332 21.7
2011-08-18 07:17:48 51°20.532 2°49.722 338.9 12.8 331 22
2011-08-18 07:17:54 51°20.551 2°49.705 338.6 12.8 331 22.4
2011-08-18 07:17:59 51°20.566 2°49.691 338.6 12.8 331 22.1
2011-08-18 07:18:04 51°20.582 2°49.678 338.8 12.8 332 22.2
2011-08-18 07:18:08 51°20.595 2°49.668 339.8 12.9 334 22.4
2011-08-18 07:18:14 51°20.614 2°49.653 340.8 12.9 333 22.5
2011-08-18 07:18:19 51°20.63 2°49.641 341.4 12.8 335 21.9
2011-08-18 07:18:23 51°20.643 2°49.631 341.9 12.9 334 22.9
2011-08-18 07:18:29 51°20.662 2°49.616 342.2 12.9 336 22.6
2011-08-18 07:18:34 51°20.678 2°49.604 342.4 12.8 334 22.3
2011-08-18 07:18:39 51°20.694 2°49.592 343 12.8 336 22.2
2011-08-18 07:18:43 51°20.707 2°49.582 342.6 12.9 335 22.9
2011-08-18 07:18:49 51°20.726 2°49.568 343.4 12.8 334 22.4
2011-08-18 07:18:54 51°20.742 2°49.556 342.1 12.9 335 22.7
2011-08-18 07:18:59 51°20.759 2°49.543 342.4 12.9 334 22.8
2011-08-18 07:19:03 51°20.772 2°49.534 342.3 12.9 335 22.6
2011-08-18 07:19:09 51°20.791 2°49.519 341.9 12.9 334 22.3
2011-08-18 07:19:14 51°20.807 2°49.506 342 12.9 335 22.7
2011-08-18 07:19:19 51°20.823 2°49.494 342.1 13 334 22.7
2011-08-18 07:19:23 51°20.837 2°49.484 342.6 13 335 22.4
2011-08-18 07:19:29 51°20.856 2°49.47 343 13 336 22.5
2011-08-18 07:19:34 51°20.873 2°49.458 343.3 13 336 22.4
2011-08-18 07:19:39 51°20.889 2°49.446 343.6 13.1 336 22.8
2011-08-18 07:19:43 51°20.902 2°49.437 343 13.1 335 22.8
2011-08-18 07:19:48 51°20.919 2°49.425 342.7 13 336 22.7
2011-08-18 07:19:53 51°20.935 2°49.413 342.7 13.1 335 22.4
2011-08-18 07:19:59 51°20.955 2°49.398 342.7 13.1 335 22.3
2011-08-18 07:20:03 51°20.968 2°49.388 342.1 13.1 334 22.6
2011-08-18 07:20:08 51°20.984 2°49.375 341.9 13 334 22
2011-08-18 07:20:13 51°21 2°49.362 341.4 13 334 22.4
2011-08-18 07:20:19 51°21.02 2°49.347 341.1 13 334 22
2011-08-18 07:20:23 51°21.033 2°49.337 341.5 12.9 335 21.8
2011-08-18 07:20:28 51°21.049 2°49.325 341.8 13.1 334 22.2
2011-08-18 07:20:33 51°21.066 2°49.312 341.8 13 335 21.8
2011-08-18 07:20:39 51°21.085 2°49.298 342.1 13 335 21.6
2011-08-18 07:20:43 51°21.098 2°49.288 342 13 335 22
2011-08-18 07:20:49 51°21.118 2°49.273 342.7 13 335 21.8
2011-08-18 07:20:54 51°21.134 2°49.261 342 13 336 21.5
2011-08-18 07:20:59 51°21.151 2°49.249 342.5 13 335 21.7
2011-08-18 07:21:03 51°21.164 2°49.239 342.6 13 335 21.5
2011-08-18 07:21:09 51°21.183 2°49.225 342.1 13 334 21.5
2011-08-18 07:21:14 51°21.2 2°49.212 341.6 13 335 21.5
2011-08-18 07:21:19 51°21.216 2°49.2 341.6 13.1 334 21.4
2011-08-18 07:21:23 51°21.229 2°49.19 341.2 13.1 334 21.1
2011-08-18 07:21:28 51°21.245 2°49.177 341.3 13.1 334 21.6
2011-08-18 07:21:34 51°21.265 2°49.162 341.3 13 335 21.3
2011-08-18 07:21:39 51°21.281 2°49.15 341.7 13 335 21.1
2011-08-18 07:21:43 51°21.294 2°49.14 341.9 13 334 21.1
2011-08-18 07:21:48 51°21.311 2°49.128 342.1 13.1 335 21.6
2011-08-18 07:21:54 51°21.33 2°49.113 342.6 13 335 20.8
2011-08-18 07:21:59 51°21.346 2°49.101 341.8 13 334 20.8
2011-08-18 07:22:03 51°21.36 2°49.092 342 13 335 21.3
2011-08-18 07:22:09 51°21.379 2°49.077 342.1 13 335 21
2011-08-18 07:22:14 51°21.396 2°49.065 342.7 12.9 336 20.8
2011-08-18 07:22:19 51°21.412 2°49.053 342.8 13 336 20.9
2011-08-18 07:22:23 51°21.425 2°49.044 343.4 13 336 20.7
2011-08-18 07:22:28 51°21.442 2°49.032 343.5 13.1 337 21.1
2011-08-18 07:22:34 51°21.462 2°49.019 344.2 13 336 21.1
2011-08-18 07:22:39 51°21.478 2°49.007 344.2 13.1 336 21.1
2011-08-18 07:22:43 51°21.492 2°48.998 343.8 13.1 337 21.2
2011-08-18 07:22:49 51°21.512 2°48.984 343.7 13.1 336 21.1
2011-08-18 07:22:54 51°21.528 2°48.972 343.9 13.1 336 21.9
2011-08-18 07:22:59 51°21.544 2°48.96 343.7 13 336 21.5
2011-08-18 07:23:03 51°21.558 2°48.951 343.4 13 335 21.8
2011-08-18 07:23:09 51°21.577 2°48.937 343.8 13 336 22.3
2011-08-18 07:23:14 51°21.594 2°48.924 343.2 13 334 22.1
2011-08-18 07:23:19 51°21.61 2°48.912 342.6 13 334 22.5
2011-08-18 07:23:23 51°21.623 2°48.901 341.5 13 334 22.2
2011-08-18 07:23:29 51°21.642 2°48.885 340.8 13 332 22.4
2011-08-18 07:23:34 51°21.658 2°48.872 340.2 13 333 22.9
2011-08-18 07:23:39 51°21.674 2°48.859 340.4 13 333 22.5
2011-08-18 07:23:43 51°21.687 2°48.849 340.5 13.1 333 22.7
2011-08-18 07:23:48 51°21.703 2°48.836 340.3 13.1 335 22.7
2011-08-18 07:23:54 51°21.722 2°48.821 340.6 13.1 334 23.1
2011-08-18 07:23:59 51°21.739 2°48.809 341.5 13.1 335 23.4
2011-08-18 07:24:03 51°21.752 2°48.799 341.7 13.1 335 22.8
2011-08-18 07:24:08 51°21.768 2°48.787 341.9 13.1 336 22.8
2011-08-18 07:24:14 51°21.788 2°48.773 342.3 13 335 22.7
2011-08-18 07:24:19 51°21.804 2°48.761 341.9 13 335 23.1
2011-08-18 07:24:23 51°21.818 2°48.751 342.1 13.1 335 22.9
2011-08-18 07:24:28 51°21.834 2°48.738 341.8 13.1 335 23
2011-08-18 07:24:34 51°21.854 2°48.724 341.8 13.1 336 22.9
2011-08-18 07:24:39 51°21.871 2°48.711 341.8 13.2 335 22.9
2011-08-18 07:24:43 51°21.884 2°48.702 341.6 13.1 336 23.2
2011-08-18 07:24:49 51°21.904 2°48.687 342 13.1 335 23
2011-08-18 07:24:54 51°21.92 2°48.675 342.3 13.1 334 23.1
2011-08-18 07:24:59 51°21.937 2°48.663 341.6 13 336 22.6
2011-08-18 07:25:03 51°21.95 2°48.653 341.5 13.1 335 23.2
2011-08-18 07:25:08 51°21.966 2°48.642 342.5 13 336 22.9
2011-08-18 07:25:14 51°21.986 2°48.627 342.6 13.1 335 23.5
2011-08-18 07:25:19 51°22.003 2°48.615 342.4 13.1 336 23.2
2011-08-18 07:25:23 51°22.016 2°48.606 342.8 13 337 22.9
2011-08-18 07:25:29 51°22.036 2°48.592 342.9 13.1 336 22.8
2011-08-18 07:25:34 51°22.052 2°48.581 343.2 13.1 336 23.5
2011-08-18 07:25:39 51°22.069 2°48.569 343.2 12.9 336 23
2011-08-18 07:25:43 51°22.082 2°48.56 342.9 13 336 23.3
2011-08-18 07:25:49 51°22.101 2°48.545 342.7 13 335 23.6
2011-08-18 07:25:54 51°22.118 2°48.533 342.4 13 335 23.4
2011-08-18 07:25:59 51°22.134 2°48.521 342.1 12.9 335 23.6
2011-08-18 07:26:03 51°22.147 2°48.511 342.1 12.9 334 23.3
2011-08-18 07:26:09 51°22.166 2°48.496 341.1 12.9 334 22.9
2011-08-18 07:26:14 51°22.182 2°48.483 341.3 12.9 333 22.8
2011-08-18 07:26:19 51°22.198 2°48.47 340.5 12.9 333 23.4
2011-08-18 07:26:23 51°22.211 2°48.461 340.7 12.8 334 23
2011-08-18 07:26:28 51°22.227 2°48.448 340.5 12.8 334 22.8
2011-08-18 07:26:34 51°22.246 2°48.433 340.9 12.9 334 22.2
2011-08-18 07:26:39 51°22.262 2°48.421 340.8 12.9 335 21.8
2011-08-18 07:26:43 51°22.275 2°48.411 341.6 12.9 336 21.4
2011-08-18 07:26:49 51°22.295 2°48.398 342.4 12.8 336 21.3
2011-08-18 07:26:54 51°22.311 2°48.386 342.7 12.9 336 21.4
2011-08-18 07:26:59 51°22.327 2°48.376 343.3 12.9 338 20.4
2011-08-18 07:27:03 51°22.341 2°48.367 344.1 12.9 337 19.4
2011-08-18 07:27:08 51°22.357 2°48.356 344.1 12.9 338 18.1
2011-08-18 07:27:14 51°22.377 2°48.343 344.4 12.8 337 16.9
2011-08-18 07:27:19 51°22.393 2°48.332 344.5 12.8 337 18.8
2011-08-18 07:27:23 51°22.406 2°48.324 344.1 12.8 338 18.3
2011-08-18 07:27:29 51°22.426 2°48.311 344.6 12.8 338 17.9
2011-08-18 07:27:34 51°22.442 2°48.299 344.3 12.9 337 17.7
2011-08-18 07:27:39 51°22.458 2°48.287 344 12.8 336 17.5
2011-08-18 07:27:43 51°22.471 2°48.277 343.5 12.7 335 17.1
2011-08-18 07:27:49 51°22.49 2°48.263 342.5 12.7 335 16.9
2011-08-18 07:27:54 51°22.506 2°48.251 342.1 12.6 334 15.2
2011-08-18 07:27:59 51°22.522 2°48.239 341.6 12.7 335 13.1
2011-08-18 07:28:03 51°22.535 2°48.228 341.1 12.9 333 13.1
2011-08-18 07:28:08 51°22.551 2°48.216 340.5 12.7 334 15.1
2011-08-18 07:28:14 51°22.57 2°48.201 340.5 12.7 334 15.8
2011-08-18 07:28:19 51°22.586 2°48.189 341.2 12.8 334 16.4
2011-08-18 07:28:23 51°22.598 2°48.179 341.2 12.7 334 17
2011-08-18 07:28:29 51°22.617 2°48.164 340.9 12.8 333 17.4
2011-08-18 07:28:34 51°22.634 2°48.151 341.1 12.9 334 17.7
2011-08-18 07:28:39 51°22.649 2°48.139 340.5 12.8 334 18
2011-08-18 07:28:43 51°22.662 2°48.129 340.6 12.8 335 17.6
2011-08-18 07:28:48 51°22.679 2°48.117 341.2 12.8 335 17.6
2011-08-18 07:28:54 51°22.698 2°48.103 341.4 12.8 336 17.6
2011-08-18 07:28:59 51°22.714 2°48.091 341.2 12.8 334 16.1
2011-08-18 07:29:03 51°22.726 2°48.081 341.3 12.9 335 15.3
2011-08-18 07:29:09 51°22.746 2°48.067 341 12.7 335 17.3
2011-08-18 07:29:14 51°22.761 2°48.054 341.2 12.8 333 17.7
2011-08-18 07:29:19 51°22.778 2°48.041 340.4 12.8 334 18.7
2011-08-18 07:29:23 51°22.79 2°48.031 340.5 12.8 334 17.7
2011-08-18 07:29:28 51°22.806 2°48.02 340.5 12.7 336 16.7
2011-08-18 07:29:34 51°22.825 2°48.006 341.7 12.8 335 18.1
2011-08-18 07:29:39 51°22.842 2°47.994 342.5 12.8 336 18.8
2011-08-18 07:29:43 51°22.855 2°47.985 342.7 12.8 336 18.7
2011-08-18 07:29:49 51°22.874 2°47.972 342.8 12.8 337 19
2011-08-18 07:29:54 51°22.89 2°47.96 343.7 12.9 336 19.2
2011-08-18 07:29:59 51°22.907 2°47.949 344.1 12.8 338 19
2011-08-18 07:30:03 51°22.92 2°47.941 344.2 12.7 337 19.1
2011-08-18 07:30:09 51°22.94 2°47.927 343.8 12.8 336 19.7
2011-08-18 07:30:14 51°22.956 2°47.915 343.4 12.8 336 19.5
2011-08-18 07:30:19 51°22.971 2°47.903 342.8 12.8 335 19.6
2011-08-18 07:30:23 51°22.984 2°47.893 341.8 12.8 334 20
2011-08-18 07:30:29 51°23.004 2°47.88 342.1 12.8 336 20
2011-08-18 07:30:34 51°23.02 2°47.868 342.7 12.8 336 20
2011-08-18 07:30:39 51°23.037 2°47.857 342.8 12.8 336 20.3
2011-08-18 07:30:43 51°23.05 2°47.848 343 12.9 336 20.3
2011-08-18 07:30:48 51°23.066 2°47.837 342.9 12.9 336 20.1
2011-08-18 07:30:54 51°23.086 2°47.823 342.9 12.9 337 20.3
2011-08-18 07:30:59 51°23.102 2°47.811 342.9 12.9 336 19.9
2011-08-18 07:31:03 51°23.115 2°47.802 343 12.9 337 20.1
2011-08-18 07:31:09 51°23.135 2°47.789 343.6 12.9 336 20.2
2011-08-18 07:31:14 51°23.152 2°47.777 343.4 12.9 337 20.6
2011-08-18 07:31:19 51°23.168 2°47.766 343.8 12.8 338 20.2
2011-08-18 07:31:23 51°23.181 2°47.758 344.5 12.8 337 20.7
2011-08-18 07:31:28 51°23.197 2°47.746 344.2 12.9 337 20.7
2011-08-18 07:31:34 51°23.217 2°47.732 343.4 12.8 336 21
2011-08-18 07:31:39 51°23.233 2°47.721 342.6 12.8 335 20.4
2011-08-18 07:31:43 51°23.246 2°47.711 341.9 12.8 335 20.5
2011-08-18 07:31:49 51°23.265 2°47.696 341.4 13 334 20.6
2011-08-18 07:31:54 51°23.281 2°47.683 340.9 12.9 333 19.7
2011-08-18 07:31:59 51°23.297 2°47.67 340.2 12.9 334 19.3
2011-08-18 07:32:03 51°23.31 2°47.66 340.9 12.9 333 17.7
2011-08-18 07:32:09 51°23.329 2°47.644 340.3 12.9 333 17.1
2011-08-18 07:32:14 51°23.346 2°47.632 341.1 12.9 335 17.9
2011-08-18 07:32:19 51°23.361 2°47.62 340.8 12.9 334 19.1
2011-08-18 07:32:23 51°23.374 2°47.61 341.2 12.9 336 19.4
2011-08-18 07:32:29 51°23.394 2°47.596 341.9 12.9 335 20
2011-08-18 07:32:34 51°23.41 2°47.584 342.2 12.9 336 20.8
2011-08-18 07:32:39 51°23.426 2°47.572 342.4 12.8 336 20.7
2011-08-18 07:32:43 51°23.439 2°47.563 342.7 12.9 336 20.5
2011-08-18 07:32:48 51°23.456 2°47.551 342.1 12.8 336 19.9
2011-08-18 07:32:54 51°23.475 2°47.538 342.6 12.8 336 19.7
2011-08-18 07:32:59 51°23.492 2°47.526 342.5 12.9 337 19.6
2011-08-18 07:33:03 51°23.505 2°47.517 343.4 12.9 337 19.8
2011-08-18 07:33:09 51°23.524 2°47.504 343 12.9 337 20.8
2011-08-18 07:33:14 51°23.54 2°47.492 343.2 12.9 337 21
2011-08-18 07:33:19 51°23.556 2°47.481 342.9 12.8 337 20.9
2011-08-18 07:33:23 51°23.569 2°47.472 343.2 12.8 335 21.6
2011-08-18 07:33:28 51°23.586 2°47.46 342 12.7 335 21.3
2011-08-18 07:33:34 51°23.604 2°47.445 341.2 12.8 334 19.7
2011-08-18 07:33:39 51°23.62 2°47.432 340.5 12.8 333 21.7
2011-08-18 07:33:43 51°23.633 2°47.422 340.1 12.7 334 21.9
2011-08-18 07:33:49 51°23.652 2°47.408 340.2 12.7 335 22.2
2011-08-18 07:33:54 51°23.668 2°47.396 341.2 12.8 335 20.9
2011-08-18 07:33:59 51°23.685 2°47.384 341.5 12.7 335 20.2
2011-08-18 07:34:03 51°23.697 2°47.374 341.9 12.7 335 20.1
2011-08-18 07:34:09 51°23.716 2°47.36 341.9 12.7 335 19.6
2011-08-18 07:34:14 51°23.732 2°47.348 341.9 12.7 335 20
2011-08-18 07:34:19 51°23.748 2°47.336 342.2 12.8 336 20.7
2011-08-18 07:34:23 51°23.761 2°47.327 342.6 12.8 336 21.2
2011-08-18 07:34:29 51°23.781 2°47.313 342.6 12.8 336 21.8
2011-08-18 07:34:34 51°23.797 2°47.302 343.3 12.8 336 22.5
2011-08-18 07:34:39 51°23.813 2°47.29 343.4 12.9 337 23.3
2011-08-18 07:34:43 51°23.826 2°47.282 344.1 12.8 338 23.7
2011-08-18 07:34:49 51°23.846 2°47.269 344.6 12.8 337 24.1
2011-08-18 07:34:54 51°23.862 2°47.258 344.3 12.8 338 24.7
2011-08-18 07:34:59 51°23.879 2°47.247 344.8 12.8 338 25
2011-08-18 07:35:03 51°23.892 2°47.238 344.5 12.8 337 24.8
2011-08-18 07:35:09 51°23.911 2°47.226 345.1 12.7 338 25
2011-08-18 07:35:14 51°23.928 2°47.214 344.3 12.8 336 25.3
2011-08-18 07:35:19 51°23.944 2°47.203 343.9 12.7 337 25.5
2011-08-18 07:35:23 51°23.957 2°47.194 344 12.8 337 25.7
2011-08-18 07:35:28 51°23.973 2°47.183 343.8 12.9 337 26.1
2011-08-18 07:35:34 51°23.993 2°47.169 344 12.8 337 25.8
2011-08-18 07:35:39 51°24.009 2°47.158 343.7 12.7 336 26.2
2011-08-18 07:35:43 51°24.022 2°47.148 343.4 12.8 335 25.8
2011-08-18 07:35:49 51°24.041 2°47.134 342.4 12.8 336 26.1
2011-08-18 07:35:54 51°24.058 2°47.122 342.1 12.9 334 26
2011-08-18 07:35:59 51°24.074 2°47.109 341.7 12.9 334 26.1
2011-08-18 07:36:03 51°24.086 2°47.099 340.8 12.9 334 26.8
2011-08-18 07:36:08 51°24.102 2°47.087 340.2 12.9 333 26.5
2011-08-18 07:36:14 51°24.121 2°47.071 339.8 12.9 333 27.4
2011-08-18 07:36:19 51°24.137 2°47.058 340.3 12.8 333 26.9
2011-08-18 07:36:23 51°24.15 2°47.048 340.5 12.8 333 27
2011-08-18 07:36:29 51°24.169 2°47.033 340.2 12.8 334 26.5
2011-08-18 07:36:34 51°24.185 2°47.02 340.5 12.8 334 26.1
2011-08-18 07:36:39 51°24.201 2°47.008 341.5 12.8 335 27.3
2011-08-18 07:36:43 51°24.214 2°46.999 342.5 12.8 336 27.9
2011-08-18 07:36:49 51°24.233 2°46.984 343.1 12.8 335 27.3
2011-08-18 07:36:54 51°24.249 2°46.973 342.8 12.8 336 26.2
2011-08-18 07:36:59 51°24.265 2°46.961 342.9 12.7 336 26.9
2011-08-18 07:37:03 51°24.278 2°46.952 343.4 12.7 336 27.5
2011-08-18 07:37:09 51°24.298 2°46.939 343.5 12.6 338 28.5
2011-08-18 07:37:14 51°24.314 2°46.928 345.1 12.7 337 28.8
2011-08-18 07:37:19 51°24.33 2°46.918 345.1 12.6 338 29
2011-08-18 07:37:23 51°24.343 2°46.909 345.2 12.7 337 29.8
2011-08-18 07:37:28 51°24.359 2°46.899 345.5 12.6 338 30.2
2011-08-18 07:37:34 51°24.379 2°46.886 345 12.6 337 30.3
2011-08-18 07:37:39 51°24.395 2°46.874 344.6 12.6 336 30.3
2011-08-18 07:37:43 51°24.408 2°46.866 343.4 12.6 336 28.7
2011-08-18 07:37:49 51°24.427 2°46.852 343.9 12.5 335 28.5
2011-08-18 07:37:54 51°24.443 2°46.84 342.8 12.6 335 29.6
2011-08-18 07:37:59 51°24.458 2°46.828 342.8 12.7 334 30.1
2011-08-18 07:38:03 51°24.471 2°46.818 342.2 12.6 334 29.8
2011-08-18 07:38:08 51°24.486 2°46.805 341.7 12.6 333 29.9
2011-08-18 07:38:14 51°24.505 2°46.79 340.8 12.6 333 30
2011-08-18 07:38:19 51°24.521 2°46.777 341.2 12.6 333 29.1
2011-08-18 07:38:23 51°24.533 2°46.767 341 12.6 332 27.4
2011-08-18 07:38:29 51°24.552 2°46.752 340.4 12.7 333 28.3
2011-08-18 07:38:34 51°24.567 2°46.738 341 12.7 333 28.8
2011-08-18 07:38:39 51°24.583 2°46.726 341.5 12.5 333 28.4
2011-08-18 07:38:43 51°24.595 2°46.716 341.5 12.6 333 28.8
2011-08-18 07:38:49 51°24.614 2°46.701 341.9 12.6 334 27.1
2011-08-18 07:38:54 51°24.63 2°46.689 342.7 12.6 335 26.7
2011-08-18 07:38:59 51°24.645 2°46.677 343 12.6 335 26.6
2011-08-18 07:39:03 51°24.658 2°46.668 343.4 12.6 334 27.1
2011-08-18 07:39:09 51°24.677 2°46.653 342.7 12.6 335 27.7
2011-08-18 07:39:14 51°24.693 2°46.641 343.2 12.6 335 28.6
2011-08-18 07:39:19 51°24.709 2°46.629 342.8 12.7 334 28.8
2011-08-18 07:39:23 51°24.722 2°46.62 342.3 12.6 335 28.6
2011-08-18 07:39:29 51°24.741 2°46.605 342.6 12.7 334 28
2011-08-18 07:39:34 51°24.757 2°46.593 342 12.7 336 26.6
2011-08-18 07:39:39 51°24.772 2°46.581 342.2 12.7 334 25.9
2011-08-18 07:39:43 51°24.785 2°46.571 342.1 12.7 335 26.1
2011-08-18 07:39:49 51°24.805 2°46.557 342.8 12.7 335 24.8
2011-08-18 07:39:54 51°24.821 2°46.545 342.8 12.7 335 24.8
2011-08-18 07:39:59 51°24.837 2°46.534 342.6 12.8 335 25.2
2011-08-18 07:40:03 51°24.85 2°46.525 343.3 12.7 336 25
2011-08-18 07:40:08 51°24.866 2°46.513 343.4 12.8 335 24.7
2011-08-18 07:40:14 51°24.886 2°46.499 343.7 12.7 336 23.9
2011-08-18 07:40:19 51°24.902 2°46.488 343.3 12.8 336 23.7
2011-08-18 07:40:23 51°24.915 2°46.478 343.7 12.8 336 23.8
2011-08-18 07:40:29 51°24.934 2°46.465 344 12.9 337 24.3
2011-08-18 07:40:34 51°24.951 2°46.454 344.3 12.8 337 24.5
2011-08-18 07:40:39 51°24.967 2°46.442 344.5 12.8 336 24.1
2011-08-18 07:40:43 51°24.98 2°46.433 343.5 12.8 336 24.2
2011-08-18 07:40:49 51°24.999 2°46.419 343.7 12.8 336 24
2011-08-18 07:40:54 51°25.015 2°46.407 343.1 12.9 335 24.2
2011-08-18 07:40:59 51°25.032 2°46.395 342.8 12.8 335 24.5
2011-08-18 07:41:03 51°25.045 2°46.386 342.4 12.8 335 24.6
2011-08-18 07:41:09 51°25.064 2°46.371 342.5 12.8 334 24.2
2011-08-18 07:41:14 51°25.08 2°46.358 341.8 12.8 335 23.5
2011-08-18 07:41:19 51°25.095 2°46.346 341.7 12.8 334 23.7
2011-08-18 07:41:23 51°25.108 2°46.335 341.4 12.9 333 24.4
2011-08-18 07:41:29 51°25.127 2°46.319 340.7 12.8 333 24.4
2011-08-18 07:41:34 51°25.142 2°46.307 340.6 12.8 333 24.5
2011-08-18 07:41:39 51°25.158 2°46.293 340.1 12.8 333 23.7
2011-08-18 07:41:43 51°25.17 2°46.283 339.9 12.8 333 24.4
2011-08-18 07:41:49 51°25.189 2°46.268 340.3 12.8 333 24.9
2011-08-18 07:41:54 51°25.205 2°46.254 340.6 12.9 332 25.2
2011-08-18 07:41:59 51°25.221 2°46.242 340.3 12.8 333 25.4
2011-08-18 07:42:03 51°25.234 2°46.232 340.7 12.8 333 24.2
2011-08-18 07:42:08 51°25.25 2°46.218 341.1 12.8 333 24.3
2011-08-18 07:42:14 51°25.269 2°46.204 340.7 12.8 335 23.9
2011-08-18 07:42:19 51°25.286 2°46.191 341.2 12.9 334 22.8
2011-08-18 07:42:23 51°25.299 2°46.181 341.7 12.9 335 24.2
2011-08-18 07:42:29 51°25.318 2°46.167 341.9 12.9 336 25.1
2011-08-18 07:42:34 51°25.335 2°46.156 343 12.9 337 25
2011-08-18 07:42:39 51°25.352 2°46.145 344.2 13 338 24.8
2011-08-18 07:42:43 51°25.365 2°46.137 344.9 12.9 339 24.6
2011-08-18 07:42:48 51°25.382 2°46.127 345.6 12.9 339 24.8
2011-08-18 07:42:54 51°25.401 2°46.115 346.2 12.8 339 23.3
2011-08-18 07:42:59 51°25.418 2°46.105 346.7 12.8 340 23.2
2011-08-18 07:43:03 51°25.432 2°46.097 347 12.9 340 24
2011-08-18 07:43:09 51°25.452 2°46.085 346.8 13 340 24.3
2011-08-18 07:43:14 51°25.469 2°46.076 347 12.9 341 24.8
2011-08-18 07:43:19 51°25.485 2°46.066 347.4 12.9 339 24.6
2011-08-18 07:43:23 51°25.499 2°46.057 346.5 12.9 339 24.3
2011-08-18 07:43:29 51°25.519 2°46.045 346.3 12.9 339 22.5
2011-08-18 07:43:34 51°25.535 2°46.034 345.2 13 337 22.7
2011-08-18 07:43:39 51°25.552 2°46.023 344.7 13 338 23.3
2011-08-18 07:43:43 51°25.565 2°46.013 344.1 13 335 23.7
2011-08-18 07:43:49 51°25.585 2°46 343.7 12.9 337 23.9
2011-08-18 07:43:54 51°25.601 2°45.988 343.4 13 336 23.6
2011-08-18 07:43:59 51°25.618 2°45.977 343.3 13 336 23.3
2011-08-18 07:44:03 51°25.631 2°45.968 342.9 12.9 335 23.7
2011-08-18 07:44:08 51°25.647 2°45.955 342.8 12.9 335 23.3
2011-08-18 07:44:14 51°25.666 2°45.941 342.1 12.8 335 22.9
2011-08-18 07:44:19 51°25.682 2°45.928 341.2 12.9 334 22
2011-08-18 07:44:23 51°25.695 2°45.918 341 13 334 23.4
2011-08-18 07:44:29 51°25.715 2°45.903 341 13 335 23.3
2011-08-18 07:44:34 51°25.731 2°45.89 340.8 13 334 23.6
2011-08-18 07:44:39 51°25.747 2°45.877 340.1 13 333 24
2011-08-18 07:44:43 51°25.76 2°45.867 340.5 12.9 334 24.4
2011-08-18 07:44:48 51°25.776 2°45.854 340.5 13.1 333 25
2011-08-18 07:44:54 51°25.795 2°45.839 340.4 13 335 24.8
2011-08-18 07:44:59 51°25.812 2°45.826 340.8 13.1 333 24.9
2011-08-18 07:45:03 51°25.824 2°45.816 340 12.9 334 24.9
2011-08-18 07:45:08 51°25.841 2°45.804 340.8 12.9 334 25
2011-08-18 07:45:14 51°25.86 2°45.789 341 13 335 24.5
2011-08-18 07:45:19 51°25.877 2°45.777 341.2 12.9 333 23.4
2011-08-18 07:45:23 51°25.89 2°45.766 341.2 12.9 334 24.6
2011-08-18 07:45:29 51°25.909 2°45.752 341.1 12.9 335 25.2
2011-08-18 07:45:34 51°25.925 2°45.74 341.4 12.8 336 25.3
2011-08-18 07:45:39 51°25.941 2°45.728 342.1 12.9 335 25.3
2011-08-18 07:45:43 51°25.954 2°45.718 342.1 12.9 335 25.6
2011-08-18 07:45:49 51°25.974 2°45.704 341.9 12.9 335 25.1
2011-08-18 07:45:54 51°25.99 2°45.692 341.7 12.9 335 24
2011-08-18 07:45:59 51°26.007 2°45.68 341.6 12.9 335 24.5
2011-08-18 07:46:03 51°26.02 2°45.67 341.8 12.9 336 25.3
2011-08-18 07:46:09 51°26.039 2°45.656 342.1 12.9 336 25.6
2011-08-18 07:46:14 51°26.055 2°45.644 342.4 12.9 335 26.3
2011-08-18 07:46:19 51°26.071 2°45.633 342.6 12.8 336 26.3
2011-08-18 07:46:23 51°26.085 2°45.623 342.7 12.8 335 26.1
2011-08-18 07:46:28 51°26.101 2°45.611 342.3 12.8 335 24.6
2011-08-18 07:46:34 51°26.12 2°45.597 342 12.9 335 25.4
2011-08-18 07:46:39 51°26.136 2°45.585 342.2 12.8 336 26
2011-08-18 07:46:43 51°26.149 2°45.576 343 12.8 336 24.8
2011-08-18 07:46:49 51°26.168 2°45.563 343.3 12.7 337 24.8
2011-08-18 07:46:54 51°26.185 2°45.552 344 12.7 338 25.8
2011-08-18 07:46:59 51°26.201 2°45.541 344.4 12.7 337 26.1
2011-08-18 07:47:03 51°26.214 2°45.532 344.3 12.7 338 26.4
2011-08-18 07:47:08 51°26.23 2°45.522 344.7 12.6 338 26.3
2011-08-18 07:47:14 51°26.25 2°45.508 344.7 12.7 336 26.7
2011-08-18 07:47:19 51°26.265 2°45.497 344.1 12.6 337 26
2011-08-18 07:47:23 51°26.278 2°45.488 343.9 12.6 335 26.8
2011-08-18 07:47:28 51°26.294 2°45.476 343.2 12.6 336 27.3
2011-08-18 07:47:34 51°26.313 2°45.462 342.5 12.6 335 27.4
2011-08-18 07:47:39 51°26.329 2°45.45 342.3 12.6 335 27
2011-08-18 07:47:43 51°26.342 2°45.44 342.3 12.8 334 26.9
2011-08-18 07:47:49 51°26.361 2°45.426 341.6 12.9 335 27.3
2011-08-18 07:47:54 51°26.376 2°45.413 341.3 12.7 333 26.6
2011-08-18 07:47:59 51°26.392 2°45.401 341.4 12.6 334 26.7
2011-08-18 07:48:03 51°26.405 2°45.39 341 12.6 333 27.2
2011-08-18 07:48:08 51°26.42 2°45.377 340.3 12.7 333 27.3
2011-08-18 07:48:14 51°26.439 2°45.362 339.8 12.7 332 27.3
2011-08-18 07:48:19 51°26.455 2°45.349 339.8 12.8 334 27.6
2011-08-18 07:48:23 51°26.468 2°45.339 340.1 12.8 333 27.4
2011-08-18 07:48:29 51°26.487 2°45.324 340.7 12.8 334 27.4
2011-08-18 07:48:34 51°26.502 2°45.312 340.9 12.7 335 27.8
2011-08-18 07:48:39 51°26.518 2°45.299 341.3 12.7 334 27.5
2011-08-18 07:48:43 51°26.53 2°45.29 342 12.7 335 27.5
2011-08-18 07:48:48 51°26.546 2°45.278 341.7 12.8 334 27.5
2011-08-18 07:48:54 51°26.565 2°45.263 341.9 12.8 334 27.8
2011-08-18 07:48:59 51°26.581 2°45.251 341.7 12.7 334 27.7
2011-08-18 07:49:03 51°26.594 2°45.241 341.9 12.7 334 27.6
2011-08-18 07:49:08 51°26.61 2°45.229 341.4 12.7 335 27.6
2011-08-18 07:49:14 51°26.629 2°45.214 342 12.7 334 27.3
2011-08-18 07:49:19 51°26.644 2°45.202 342 12.7 336 27.3
2011-08-18 07:49:23 51°26.658 2°45.193 342.6 12.7 336 27.2
2011-08-18 07:49:28 51°26.673 2°45.181 342.7 12.8 336 27.5
2011-08-18 07:49:34 51°26.693 2°45.167 342.7 12.8 335 27
2011-08-18 07:49:39 51°26.709 2°45.155 343 12.7 334 27.1
2011-08-18 07:49:43 51°26.721 2°45.145 342.1 12.7 335 27.4
2011-08-18 07:49:48 51°26.738 2°45.133 342.2 12.8 334 27.6
2011-08-18 07:49:54 51°26.757 2°45.118 341.9 12.8 334 27.3
2011-08-18 07:49:59 51°26.773 2°45.105 341.6 12.8 335 27.3
2011-08-18 07:50:04 51°26.789 2°45.094 342.2 12.8 335 27.2
2011-08-18 07:50:09 51°26.805 2°45.082 342.7 12.8 335 27.1
2011-08-18 07:50:14 51°26.821 2°45.07 342.7 12.8 336 27.2
2011-08-18 07:50:19 51°26.837 2°45.059 343.3 12.8 335 27.2
2011-08-18 07:50:23 51°26.85 2°45.049 343.5 12.8 336 27.7
2011-08-18 07:50:28 51°26.866 2°45.038 343.8 12.8 336 27.5
2011-08-18 07:50:34 51°26.886 2°45.024 343.9 12.8 336 27.5
2011-08-18 07:50:39 51°26.901 2°45.012 343.6 12.7 335 27.9
2011-08-18 07:50:43 51°26.914 2°45.003 343.3 12.7 336 27.8
2011-08-18 07:50:49 51°26.934 2°44.988 343.1 12.7 334 27.9
2011-08-18 07:50:54 51°26.95 2°44.977 342.6 12.7 336 28.2
2011-08-18 07:50:59 51°26.966 2°44.964 342.5 12.8 333 28
2011-08-18 07:51:03 51°26.978 2°44.954 341.8 12.8 334 28.3
2011-08-18 07:51:08 51°26.994 2°44.942 341.9 12.8 335 27.8
2011-08-18 07:51:14 51°27.014 2°44.927 342.6 12.8 334 27.3
2011-08-18 07:51:19 51°27.03 2°44.914 341.8 12.9 334 27
2011-08-18 07:51:23 51°27.042 2°44.904 341.3 12.8 334 27.4
2011-08-18 07:51:28 51°27.058 2°44.891 341.2 12.9 333 27
2011-08-18 07:51:34 51°27.077 2°44.876 340.6 12.8 334 26.8
2011-08-18 07:51:39 51°27.093 2°44.863 341.1 12.8 333 27.6
2011-08-18 07:51:43 51°27.105 2°44.853 341.3 12.7 333 27.6
2011-08-18 07:51:49 51°27.124 2°44.838 341.1 12.8 333 26.8
2011-08-18 07:51:54 51°27.14 2°44.825 340.9 12.9 333 27.2
2011-08-18 07:51:59 51°27.156 2°44.812 341.1 12.9 334 27.5
2011-08-18 07:52:03 51°27.169 2°44.802 341.1 12.8 334 26.7
2011-08-18 07:52:08 51°27.185 2°44.789 340.9 12.9 333 26.3
2011-08-18 07:52:14 51°27.204 2°44.774 341.3 13 334 27
2011-08-18 07:52:19 51°27.22 2°44.761 341.4 12.8 333 26.8
2011-08-18 07:52:23 51°27.233 2°44.751 341.6 12.7 335 26.9
2011-08-18 07:52:28 51°27.249 2°44.74 342.6 12.7 336 27.1
2011-08-18 07:52:34 51°27.268 2°44.726 343 12.8 335 27.1
2011-08-18 07:52:39 51°27.284 2°44.714 343.1 12.8 336 27.2
2011-08-18 07:52:44 51°27.3 2°44.703 343.6 12.8 336 26.7
2011-08-18 07:52:49 51°27.317 2°44.691 343.9 12.9 336 26.9
2011-08-18 07:52:54 51°27.333 2°44.679 343.7 12.7 335 25.5
2011-08-18 07:52:59 51°27.349 2°44.668 343.7 12.8 336 25.2
2011-08-18 07:53:03 51°27.362 2°44.659 343.6 12.9 336 24.9
2011-08-18 07:53:08 51°27.378 2°44.647 343.5 12.8 336 25.4
2011-08-18 07:53:14 51°27.398 2°44.633 343.4 12.7 336 25.8
2011-08-18 07:53:19 51°27.414 2°44.621 344 12.7 336 25.7
2011-08-18 07:53:23 51°27.427 2°44.612 343.4 12.7 335 25.2
2011-08-18 07:53:28 51°27.443 2°44.601 343.4 12.8 336 25.3
2011-08-18 07:53:34 51°27.462 2°44.587 343.4 12.8 336 23.9
2011-08-18 07:53:39 51°27.479 2°44.575 343.7 12.9 336 24.8
2011-08-18 07:53:43 51°27.492 2°44.566 343.9 12.8 336 24.3
2011-08-18 07:53:48 51°27.508 2°44.555 344 12.8 337 25
2011-08-18 07:53:53 51°27.524 2°44.543 344.5 12.8 337 25.4
2011-08-18 07:53:59 51°27.544 2°44.53 344.6 12.8 337 24.9
2011-08-18 07:54:03 51°27.557 2°44.522 344.8 12.8 338 25.5
2011-08-18 07:54:08 51°27.573 2°44.509 344.8 12.8 335 25.8
2011-08-18 07:54:14 51°27.592 2°44.495 344.6 12.7 335 25.5